メインページ
METAR-TAF:

METAR-TAF

空港 :

ジュネーヴ, スイス

ジュネーヴ空港

緯度: 46-15N, 経度: 006-08E, 海抜: 420m

現時点の気象観測

当レポートは15分前の04:50(UTC)に作成
西/南西の風 7kt
気温 15°C
湿度 82%
気圧 1019 hPa
視程10km以上
高度5200ftの雲はほとんどない

METAR: LSGG 210450Z 24007KT 9999 FEW052 15/12 Q1019 NOSIG

時間: 07:05 (05:05 UTC)

予報

当レポートは1時間20分前の03:45(UTC)に作成
予報は21日の 03時(UTC)から 22日の 09時(UTC)まで有効
南西の風 10kt
視程10km以上
1,500メートル以下は雲なし、積乱雲なし
21日の 15時(UTC)から 21日の 18時(UTC)まで徐々に
南西の風 15kt、最大25ktの突風を伴う
高度2000ftの雲は散在している
高度4000ftの千切れ雲あり
弱いにわか雨

TAF: LSGG 210345Z 2103/2209 23010KT CAVOK TX20/2114Z TN12/2105Z TN06/2205Z BECMG 2115/2118 23015G25KT -SHRA SCT020 BKN040

4,000以上の空港の気象観測と天気予報(METAR報とTAF報)

利用可能な観測所は地図上に黄色い丸と赤い丸で示す。

丸の上にカーソルを重ねると観測所名を参照できる。

次にクリックすると気象観測と天気予報を参照できる。

マップの切り替え:黒色「×」印の緑ボタンをクリックして拡大、「-」印の緑ボタンをクリックして縮小、緑色の三角印をクリックして隣りの地図に切り替え


METAR-TAF: